sensor_id;sensor_type;location;lat;lon;timestamp;pressure;altitude;pressure_sealevel;temperature;humidity
50550;BME280;36505;52.512;13.460;2024-01-30T00:02:16;102446.84;;;4.70;65.93
50550;BME280;36505;52.512;13.460;2024-01-30T00:04:41;102447.00;;;4.68;66.19
50550;BME280;36505;52.512;13.460;2024-01-30T00:07:07;102437.31;;;4.66;66.07
50550;BME280;36505;52.512;13.460;2024-01-30T00:09:32;102441.03;;;4.65;66.38
50550;BME280;36505;52.512;13.460;2024-01-30T00:11:58;102452.91;;;4.64;66.07
50550;BME280;36505;52.512;13.460;2024-01-30T00:14:23;102445.09;;;4.61;66.04
50550;BME280;36505;52.512;13.460;2024-01-30T00:16:49;102450.69;;;4.59;66.14
50550;BME280;36505;52.512;13.460;2024-01-30T00:19:15;102449.81;;;4.59;66.07
50550;BME280;36505;52.512;13.460;2024-01-30T00:21:40;102451.03;;;4.56;66.01
50550;BME280;36505;52.512;13.460;2024-01-30T00:24:06;102445.06;;;4.53;66.12
50550;BME280;36505;52.512;13.460;2024-01-30T00:26:31;102456.91;;;4.52;66.38
50550;BME280;36505;52.512;13.460;2024-01-30T00:28:57;102456.25;;;4.50;66.18
50550;BME280;36505;52.512;13.460;2024-01-30T00:31:22;102455.56;;;4.48;66.17
50550;BME280;36505;52.512;13.460;2024-01-30T00:33:48;102446.88;;;4.44;66.24
50550;BME280;36505;52.512;13.460;2024-01-30T00:36:13;102448.75;;;4.44;65.99
50550;BME280;36505;52.512;13.460;2024-01-30T00:38:38;102445.53;;;4.40;66.17
50550;BME280;36505;52.512;13.460;2024-01-30T00:41:07;102452.81;;;4.40;66.58
50550;BME280;36505;52.512;13.460;2024-01-30T00:43:33;102440.25;;;4.38;66.36
50550;BME280;36505;52.512;13.460;2024-01-30T00:45:58;102446.88;;;4.36;66.42
50550;BME280;36505;52.512;13.460;2024-01-30T00:48:24;102440.59;;;4.35;66.41
50550;BME280;36505;52.512;13.460;2024-01-30T00:50:49;102440.91;;;4.32;66.53
50550;BME280;36505;52.512;13.460;2024-01-30T00:53:15;102442.91;;;4.30;66.52
50550;BME280;36505;52.512;13.460;2024-01-30T00:55:40;102443.97;;;4.29;66.47
50550;BME280;36505;52.512;13.460;2024-01-30T00:58:06;102444.25;;;4.26;66.43
50550;BME280;36505;52.512;13.460;2024-01-30T01:00:32;102440.00;;;4.24;66.80
50550;BME280;36505;52.512;13.460;2024-01-30T01:03:01;102458.84;;;4.25;67.06
50550;BME280;36505;52.512;13.460;2024-01-30T01:05:26;102451.69;;;4.24;66.52
50550;BME280;36505;52.512;13.460;2024-01-30T01:07:52;102455.41;;;4.23;66.92
50550;BME280;36505;52.512;13.460;2024-01-30T01:10:17;102443.91;;;4.21;66.67
50550;BME280;36505;52.512;13.460;2024-01-30T01:12:48;102446.94;;;4.18;66.39
50550;BME280;36505;52.512;13.460;2024-01-30T01:15:13;102448.94;;;4.16;66.90
50550;BME280;36505;52.512;13.460;2024-01-30T01:17:39;102450.13;;;4.14;66.72
50550;BME280;36505;52.512;13.460;2024-01-30T01:20:06;102446.72;;;4.12;66.48
50550;BME280;36505;52.512;13.460;2024-01-30T01:22:32;102446.88;;;4.10;67.02
50550;BME280;36505;52.512;13.460;2024-01-30T01:24:58;102444.34;;;4.09;66.88
50550;BME280;36505;52.512;13.460;2024-01-30T01:27:24;102449.94;;;4.07;66.68
50550;BME280;36505;52.512;13.460;2024-01-30T01:29:50;102443.97;;;4.04;66.83
50550;BME280;36505;52.512;13.460;2024-01-30T01:32:15;102451.25;;;4.03;67.09
50550;BME280;36505;52.512;13.460;2024-01-30T01:34:41;102448.72;;;4.02;66.85
50550;BME280;36505;52.512;13.460;2024-01-30T01:37:06;102447.00;;;4.01;67.11
50550;BME280;36505;52.512;13.460;2024-01-30T01:39:32;102442.75;;;3.98;66.94
50550;BME280;36505;52.512;13.460;2024-01-30T01:41:57;102443.75;;;3.97;67.00
50550;BME280;36505;52.512;13.460;2024-01-30T01:44:23;102441.22;;;3.95;66.92
50550;BME280;36505;52.512;13.460;2024-01-30T01:46:48;102450.38;;;3.94;67.26
50550;BME280;36505;52.512;13.460;2024-01-30T01:49:14;102439.69;;;3.93;67.21
50550;BME280;36505;52.512;13.460;2024-01-30T01:51:40;102440.69;;;3.92;67.55
50550;BME280;36505;52.512;13.460;2024-01-30T01:54:06;102439.81;;;3.91;66.93
50550;BME280;36505;52.512;13.460;2024-01-30T01:56:33;102435.41;;;3.90;67.29
50550;BME280;36505;52.512;13.460;2024-01-30T01:59:05;102432.19;;;3.87;67.75
50550;BME280;36505;52.512;13.460;2024-01-30T02:01:32;102432.88;;;3.89;67.18
50550;BME280;36505;52.512;13.460;2024-01-30T02:03:59;102436.59;;;3.88;67.55
50550;BME280;36505;52.512;13.460;2024-01-30T02:06:24;102434.03;;;3.86;67.29
50550;BME280;36505;52.512;13.460;2024-01-30T02:08:49;102435.03;;;3.85;67.11
50550;BME280;36505;52.512;13.460;2024-01-30T02:11:15;102437.06;;;3.83;67.21
50550;BME280;36505;52.512;13.460;2024-01-30T02:13:42;102438.25;;;3.81;67.64
50550;BME280;36505;52.512;13.460;2024-01-30T02:16:07;102441.97;;;3.80;67.26
50550;BME280;36505;52.512;13.460;2024-01-30T02:18:33;102441.25;;;3.78;67.42
50550;BME280;36505;52.512;13.460;2024-01-30T02:20:59;102438.56;;;3.78;67.35
50550;BME280;36505;52.512;13.460;2024-01-30T02:23:30;102442.44;;;3.75;67.73
50550;BME280;36505;52.512;13.460;2024-01-30T02:25:56;102438.88;;;3.75;67.56
50550;BME280;36505;52.512;13.460;2024-01-30T02:28:21;102428.19;;;3.73;67.76
50550;BME280;36505;52.512;13.460;2024-01-30T02:30:46;102444.47;;;3.73;68.19
50550;BME280;36505;52.512;13.460;2024-01-30T02:33:12;102439.03;;;3.73;67.93
50550;BME280;36505;52.512;13.460;2024-01-30T02:35:38;102437.34;;;3.72;68.02
50550;BME280;36505;52.512;13.460;2024-01-30T02:38:03;102428.66;;;3.69;68.14
50550;BME280;36505;52.512;13.460;2024-01-30T02:40:29;102428.19;;;3.73;67.98
50550;BME280;36505;52.512;13.460;2024-01-30T02:42:56;102424.56;;;3.65;68.22
50550;BME280;36505;52.512;13.460;2024-01-30T02:45:21;102431.06;;;3.72;67.97
50550;BME280;36505;52.512;13.460;2024-01-30T02:47:47;102433.78;;;3.72;68.25
50550;BME280;36505;52.512;13.460;2024-01-30T02:50:12;102428.34;;;3.72;68.44
50550;BME280;36505;52.512;13.460;2024-01-30T02:52:38;102427.34;;;3.73;68.31
50550;BME280;36505;52.512;13.460;2024-01-30T02:55:04;102420.38;;;3.70;68.51
50550;BME280;36505;52.512;13.460;2024-01-30T02:57:29;102423.63;;;3.74;68.72
50550;BME280;36505;52.512;13.460;2024-01-30T02:59:55;102423.63;;;3.74;68.39
50550;BME280;36505;52.512;13.460;2024-01-30T03:02:20;102412.94;;;3.72;68.79
50550;BME280;36505;52.512;13.460;2024-01-30T03:04:46;102423.63;;;3.74;68.85
50550;BME280;36505;52.512;13.460;2024-01-30T03:07:12;102416.34;;;3.74;68.92
50550;BME280;36505;52.512;13.460;2024-01-30T03:09:37;102423.47;;;3.75;68.91
50550;BME280;36505;52.512;13.460;2024-01-30T03:12:04;102417.88;;;3.77;69.00
50550;BME280;36505;52.512;13.460;2024-01-30T03:14:30;102412.47;;;3.77;68.89
50550;BME280;36505;52.512;13.460;2024-01-30T03:16:56;102411.44;;;3.78;68.76
50550;BME280;36505;52.512;13.460;2024-01-30T03:19:21;102403.31;;;3.78;68.74
50550;BME280;36505;52.512;13.460;2024-01-30T03:21:46;102403.31;;;3.78;68.97
50550;BME280;36505;52.512;13.460;2024-01-30T03:24:12;102406.88;;;3.78;68.62
50550;BME280;36505;52.512;13.460;2024-01-30T03:26:37;102409.75;;;3.77;68.81
50550;BME280;36505;52.512;13.460;2024-01-30T03:29:03;102411.44;;;3.78;69.05
50550;BME280;36505;52.512;13.460;2024-01-30T03:31:28;102412.78;;;3.74;68.61
50550;BME280;36505;52.512;13.460;2024-01-30T03:33:53;102408.03;;;3.76;68.83
50550;BME280;36505;52.512;13.460;2024-01-30T03:36:19;102405.53;;;3.74;68.80
50550;BME280;36505;52.512;13.460;2024-01-30T03:38:45;102407.38;;;3.74;68.56
50550;BME280;36505;52.512;13.460;2024-01-30T03:41:10;102406.81;;;3.70;69.05
50550;BME280;36505;52.512;13.460;2024-01-30T03:43:36;102401.41;;;3.70;69.23
50550;BME280;36505;52.512;13.460;2024-01-30T03:46:02;102400.75;;;3.68;69.24
50550;BME280;36505;52.512;13.460;2024-01-30T03:48:28;102403.59;;;3.67;68.94
50550;BME280;36505;52.512;13.460;2024-01-30T03:50:54;102397.34;;;3.66;69.04
50550;BME280;36505;52.512;13.460;2024-01-30T03:53:19;102396.97;;;3.61;69.20
50550;BME280;36505;52.512;13.460;2024-01-30T03:55:45;102400.19;;;3.65;69.12
50550;BME280;36505;52.512;13.460;2024-01-30T03:58:10;102393.06;;;3.64;69.38
50550;BME280;36505;52.512;13.460;2024-01-30T04:00:36;102406.63;;;3.64;69.18
50550;BME280;36505;52.512;13.460;2024-01-30T04:03:01;102394.94;;;3.63;69.48
50550;BME280;36505;52.512;13.460;2024-01-30T04:05:26;102400.34;;;3.63;69.41
50550;BME280;36505;52.512;13.460;2024-01-30T04:07:52;102400.53;;;3.62;69.45
50550;BME280;36505;52.512;13.460;2024-01-30T04:10:17;102401.53;;;3.61;69.54
50550;BME280;36505;52.512;13.460;2024-01-30T04:12:42;102405.25;;;3.60;69.68
50550;BME280;36505;52.512;13.460;2024-01-30T04:15:08;102403.38;;;3.60;69.41
50550;BME280;36505;52.512;13.460;2024-01-30T04:17:33;102407.09;;;3.59;69.68
50550;BME280;36505;52.512;13.460;2024-01-30T04:19:59;102403.69;;;3.57;69.75
50550;BME280;36505;52.512;13.460;2024-01-30T04:22:24;102404.69;;;3.56;69.48
50550;BME280;36505;52.512;13.460;2024-01-30T04:24:50;102411.97;;;3.55;69.32
50550;BME280;36505;52.512;13.460;2024-01-30T04:27:15;102409.25;;;3.55;69.77
50550;BME280;36505;52.512;13.460;2024-01-30T04:29:41;102404.03;;;3.54;69.74
50550;BME280;36505;52.512;13.460;2024-01-30T04:32:06;102404.03;;;3.54;70.18
50550;BME280;36505;52.512;13.460;2024-01-30T04:34:32;102404.88;;;3.54;69.85
50550;BME280;36505;52.512;13.460;2024-01-30T04:36:57;102397.56;;;3.55;69.89
50550;BME280;36505;52.512;13.460;2024-01-30T04:39:22;102399.47;;;3.54;69.81
50550;BME280;36505;52.512;13.460;2024-01-30T04:41:48;102394.03;;;3.54;69.82
50550;BME280;36505;52.512;13.460;2024-01-30T04:44:14;102393.19;;;3.54;69.98
50550;BME280;36505;52.512;13.460;2024-01-30T04:46:39;102387.78;;;3.54;70.33
50550;BME280;36505;52.512;13.460;2024-01-30T04:49:04;102399.47;;;3.54;70.23
50550;BME280;36505;52.512;13.460;2024-01-30T04:51:30;102389.44;;;3.55;70.09
50550;BME280;36505;52.512;13.460;2024-01-30T04:53:55;102382.34;;;3.54;70.24
50550;BME280;36505;52.512;13.460;2024-01-30T04:56:21;102384.22;;;3.53;70.36
50550;BME280;36505;52.512;13.460;2024-01-30T04:58:46;102390.28;;;3.55;70.66
50550;BME280;36505;52.512;13.460;2024-01-30T05:01:16;102394.72;;;3.56;70.73
50550;BME280;36505;52.512;13.460;2024-01-30T05:03:41;102392.00;;;3.56;70.40
50550;BME280;36505;52.512;13.460;2024-01-30T05:06:07;102391.84;;;3.58;70.62
50550;BME280;36505;52.512;13.460;2024-01-30T05:08:32;102391.69;;;3.60;70.51
50550;BME280;36505;52.512;13.460;2024-01-30T05:11:00;102392.84;;;3.57;70.69
50550;BME280;36505;52.512;13.460;2024-01-30T05:13:25;102398.13;;;3.58;70.70
50550;BME280;36505;52.512;13.460;2024-01-30T05:15:51;102393.56;;;3.59;70.63
50550;BME280;36505;52.512;13.460;2024-01-30T05:18:16;102387.28;;;3.58;70.66
50550;BME280;36505;52.512;13.460;2024-01-30T05:20:42;102397.13;;;3.60;70.92
50550;BME280;36505;52.512;13.460;2024-01-30T05:23:07;102389.00;;;3.60;70.62
50550;BME280;36505;52.512;13.460;2024-01-30T05:25:33;102391.00;;;3.57;70.76
50550;BME280;36505;52.512;13.460;2024-01-30T05:27:58;102393.72;;;3.57;70.75
50550;BME280;36505;52.512;13.460;2024-01-30T05:30:24;102390.00;;;3.58;70.87
50550;BME280;36505;52.512;13.460;2024-01-30T05:32:49;102392.69;;;3.58;70.72
50550;BME280;36505;52.512;13.460;2024-01-30T05:35:15;102394.56;;;3.58;71.04
50550;BME280;36505;52.512;13.460;2024-01-30T05:37:40;102397.41;;;3.56;70.71
50550;BME280;36505;52.512;13.460;2024-01-30T05:40:06;102382.50;;;3.52;70.83
50550;BME280;36505;52.512;13.460;2024-01-30T05:42:32;102380.50;;;3.54;71.07
50550;BME280;36505;52.512;13.460;2024-01-30T05:44:57;102384.88;;;3.55;70.55
50550;BME280;36505;52.512;13.460;2024-01-30T05:47:22;102388.63;;;3.54;70.61
50550;BME280;36505;52.512;13.460;2024-01-30T05:49:48;102379.81;;;3.52;70.79
50550;BME280;36505;52.512;13.460;2024-01-30T05:52:13;102379.09;;;3.50;70.98
50550;BME280;36505;52.512;13.460;2024-01-30T05:54:40;102379.09;;;3.50;70.97
50550;BME280;36505;52.512;13.460;2024-01-30T05:57:05;102381.81;;;3.50;71.14
50550;BME280;36505;52.512;13.460;2024-01-30T05:59:31;102384.38;;;3.52;71.44
50550;BME280;36505;52.512;13.460;2024-01-30T06:01:57;102386.22;;;3.51;71.30
50550;BME280;36505;52.512;13.460;2024-01-30T06:04:23;102384.50;;;3.50;71.29
50550;BME280;36505;52.512;13.460;2024-01-30T06:06:48;102384.50;;;3.50;71.10
50550;BME280;36505;52.512;13.460;2024-01-30T06:09:13;102390.94;;;3.49;71.10
50550;BME280;36505;52.512;13.460;2024-01-30T06:11:39;102375.69;;;3.48;71.09
50550;BME280;36505;52.512;13.460;2024-01-30T06:14:05;102380.44;;;3.46;71.56
50550;BME280;36505;52.512;13.460;2024-01-30T06:16:30;102381.97;;;3.49;71.31
50550;BME280;36505;52.512;13.460;2024-01-30T06:18:56;102374.31;;;3.44;71.32
50550;BME280;36505;52.512;13.460;2024-01-30T06:21:23;102384.00;;;3.47;71.55
50550;BME280;36505;52.512;13.460;2024-01-30T06:23:48;102375.03;;;3.46;71.49
50550;BME280;36505;52.512;13.460;2024-01-30T06:26:14;102383.16;;;3.46;71.19
50550;BME280;36505;52.512;13.460;2024-01-30T06:28:39;102378.72;;;3.45;71.62
50550;BME280;36505;52.512;13.460;2024-01-30T06:31:04;102373.47;;;3.44;71.36
50550;BME280;36505;52.512;13.460;2024-01-30T06:33:30;102370.75;;;3.44;71.56
50550;BME280;36505;52.512;13.460;2024-01-30T06:35:55;102376.19;;;3.44;71.54
50550;BME280;36505;52.512;13.460;2024-01-30T06:38:20;102378.88;;;3.44;71.52
50550;BME280;36505;52.512;13.460;2024-01-30T06:40:46;102375.31;;;3.43;71.71
50550;BME280;36505;52.512;13.460;2024-01-30T06:43:11;102375.31;;;3.43;71.71
50550;BME280;36505;52.512;13.460;2024-01-30T06:45:37;102378.88;;;3.44;71.83
50550;BME280;36505;52.512;13.460;2024-01-30T06:48:02;102377.19;;;3.43;71.77
50550;BME280;36505;52.512;13.460;2024-01-30T06:50:28;102375.31;;;3.43;71.48
50550;BME280;36505;52.512;13.460;2024-01-30T06:52:53;102372.75;;;3.42;71.34
50550;BME280;36505;52.512;13.460;2024-01-30T06:55:19;102373.63;;;3.42;71.47
50550;BME280;36505;52.512;13.460;2024-01-30T06:57:44;102374.63;;;3.41;72.01
50550;BME280;36505;52.512;13.460;2024-01-30T07:00:10;102379.88;;;3.43;71.79
50550;BME280;36505;52.512;13.460;2024-01-30T07:02:36;102379.03;;;3.42;71.79
50550;BME280;36505;52.512;13.460;2024-01-30T07:05:01;102376.66;;;3.39;72.02
50550;BME280;36505;52.512;13.460;2024-01-30T07:07:27;102377.72;;;3.46;72.24
50550;BME280;36505;52.512;13.460;2024-01-30T07:09:54;102381.09;;;3.48;72.59
50550;BME280;36505;52.512;13.460;2024-01-30T07:12:22;102377.25;;;3.51;72.50
50550;BME280;36505;52.512;13.460;2024-01-30T07:14:49;102375.91;;;3.55;72.86
50550;BME280;36505;52.512;13.460;2024-01-30T07:17:15;102382.88;;;3.57;72.44
50550;BME280;36505;52.512;13.460;2024-01-30T07:19:41;102374.03;;;3.55;72.59
50550;BME280;36505;52.512;13.460;2024-01-30T07:22:06;102376.31;;;3.60;72.30
50550;BME280;36505;52.512;13.460;2024-01-30T07:24:31;102379.69;;;3.62;72.39
50550;BME280;36505;52.512;13.460;2024-01-30T07:26:57;102369.53;;;3.64;72.63
50550;BME280;36505;52.512;13.460;2024-01-30T07:29:22;102376.50;;;3.67;72.55
50550;BME280;36505;52.512;13.460;2024-01-30T07:31:47;102371.09;;;3.67;72.64
50550;BME280;36505;52.512;13.460;2024-01-30T07:34:13;102359.91;;;3.70;72.83
50550;BME280;36505;52.512;13.460;2024-01-30T07:36:38;102371.16;;;3.75;72.67
50550;BME280;36505;52.512;13.460;2024-01-30T07:39:04;102357.25;;;3.78;72.52
50550;BME280;36505;52.512;13.460;2024-01-30T07:41:29;102374.06;;;3.81;72.71
50550;BME280;36505;52.512;13.460;2024-01-30T07:43:55;102354.91;;;3.83;72.87
50550;BME280;36505;52.512;13.460;2024-01-30T07:46:20;102359.16;;;3.85;72.37
50550;BME280;36505;52.512;13.460;2024-01-30T07:48:46;102369.69;;;3.88;72.05
50550;BME280;36505;52.512;13.460;2024-01-30T07:51:11;102366.50;;;3.93;72.51
50550;BME280;36505;52.512;13.460;2024-01-30T07:53:36;102367.19;;;3.95;72.56
50550;BME280;36505;52.512;13.460;2024-01-30T07:56:02;102363.28;;;3.97;72.57
50550;BME280;36505;52.512;13.460;2024-01-30T07:58:27;102366.53;;;4.01;72.24
50550;BME280;36505;52.512;13.460;2024-01-30T08:00:53;102362.63;;;4.04;72.43
50550;BME280;36505;52.512;13.460;2024-01-30T08:03:18;102365.91;;;4.07;72.39
50550;BME280;36505;52.512;13.460;2024-01-30T08:05:44;102363.03;;;4.09;72.01
50550;BME280;36505;52.512;13.460;2024-01-30T08:08:09;102360.81;;;4.12;72.08
50550;BME280;36505;52.512;13.460;2024-01-30T08:10:35;102360.50;;;4.15;71.96
50550;BME280;36505;52.512;13.460;2024-01-30T08:13:01;102360.16;;;4.18;72.16
50550;BME280;36505;52.512;13.460;2024-01-30T08:15:27;102357.16;;;4.21;72.51
50550;BME280;36505;52.512;13.460;2024-01-30T08:17:52;102354.78;;;4.26;72.51
50550;BME280;36505;52.512;13.460;2024-01-30T08:20:24;102364.97;;;4.32;72.09
50550;BME280;36505;52.512;13.460;2024-01-30T08:22:49;102365.50;;;4.36;72.32
50550;BME280;36505;52.512;13.460;2024-01-30T08:25:15;102349.75;;;4.40;72.99
50550;BME280;36505;52.512;13.460;2024-01-30T08:27:40;102356.34;;;4.45;72.98
50550;BME280;36505;52.512;13.460;2024-01-30T08:30:07;102345.19;;;4.48;72.92
50550;BME280;36505;52.512;13.460;2024-01-30T08:32:33;102348.78;;;4.57;73.47
50550;BME280;36505;52.512;13.460;2024-01-30T08:34:59;102348.97;;;4.63;73.33
50550;BME280;36505;52.512;13.460;2024-01-30T08:37:24;102350.00;;;4.70;73.19
50550;BME280;36505;52.512;13.460;2024-01-30T08:39:50;102349.66;;;4.73;73.13
50550;BME280;36505;52.512;13.460;2024-01-30T08:42:15;102354.09;;;4.83;73.83
50550;BME280;36505;52.512;13.460;2024-01-30T08:44:43;102347.97;;;4.89;73.75
50550;BME280;36505;52.512;13.460;2024-01-30T08:47:09;102332.03;;;4.94;74.51
50550;BME280;36505;52.512;13.460;2024-01-30T08:49:34;102336.09;;;5.06;74.90
50550;BME280;36505;52.512;13.460;2024-01-30T08:51:59;102340.34;;;5.16;74.83
50550;BME280;36505;52.512;13.460;2024-01-30T08:54:25;102346.44;;;5.27;75.27
50550;BME280;36505;52.512;13.460;2024-01-30T08:56:50;102328.81;;;5.39;76.23
50550;BME280;36505;52.512;13.460;2024-01-30T08:59:18;102343.19;;;5.55;76.25
50550;BME280;36505;52.512;13.460;2024-01-30T09:01:44;102336.19;;;5.69;76.48
50550;BME280;36505;52.512;13.460;2024-01-30T09:04:09;102328.34;;;5.82;77.07
50550;BME280;36505;52.512;13.460;2024-01-30T09:06:34;102332.75;;;6.00;77.50
50550;BME280;36505;52.512;13.460;2024-01-30T09:09:00;102331.16;;;6.13;77.54
50550;BME280;36505;52.512;13.460;2024-01-30T09:11:26;102329.56;;;6.27;77.46
50550;BME280;36505;52.512;13.460;2024-01-30T09:13:51;102325.41;;;6.39;77.34
50550;BME280;36505;52.512;13.460;2024-01-30T09:16:16;102329.41;;;6.51;77.51
50550;BME280;36505;52.512;13.460;2024-01-30T09:18:42;102336.31;;;6.62;77.10
50550;BME280;36505;52.512;13.460;2024-01-30T09:21:07;102328.94;;;6.70;76.91
50550;BME280;36505;52.512;13.460;2024-01-30T09:23:33;102341.66;;;6.78;76.82
50550;BME280;36505;52.512;13.460;2024-01-30T09:25:58;102338.88;;;6.86;76.35
50550;BME280;36505;52.512;13.460;2024-01-30T09:28:24;102331.50;;;6.95;76.33
50550;BME280;36505;52.512;13.460;2024-01-30T09:30:49;102341.50;;;7.02;76.17
50550;BME280;36505;52.512;13.460;2024-01-30T09:33:15;102336.50;;;7.06;75.63
50550;BME280;36505;52.512;13.460;2024-01-30T09:35:40;102337.47;;;7.13;75.77
50550;BME280;36505;52.512;13.460;2024-01-30T09:38:06;102336.75;;;7.19;75.19
50550;BME280;36505;52.512;13.460;2024-01-30T09:40:31;102322.38;;;7.25;74.05
50550;BME280;36505;52.512;13.460;2024-01-30T09:42:58;102329.81;;;7.31;75.02
50550;BME280;36505;52.512;13.460;2024-01-30T09:45:27;102332.00;;;7.36;74.79
50550;BME280;36505;52.512;13.460;2024-01-30T09:47:53;102323.63;;;7.37;74.65
50550;BME280;36505;52.512;13.460;2024-01-30T09:50:19;102330.41;;;7.41;73.25
50550;BME280;36505;52.512;13.460;2024-01-30T09:52:45;102326.94;;;7.47;74.43
50550;BME280;36505;52.512;13.460;2024-01-30T09:55:11;102327.41;;;7.51;72.98
50550;BME280;36505;52.512;13.460;2024-01-30T09:57:36;102332.97;;;7.58;74.32
50550;BME280;36505;52.512;13.460;2024-01-30T10:00:03;102323.41;;;7.62;74.19
50550;BME280;36505;52.512;13.460;2024-01-30T10:02:33;102321.44;;;7.70;74.09
50550;BME280;36505;52.512;13.460;2024-01-30T10:04:59;102319.84;;;7.76;74.05
50550;BME280;36505;52.512;13.460;2024-01-30T10:07:25;102317.97;;;7.91;74.62
50550;BME280;36505;52.512;13.460;2024-01-30T10:09:50;102313.88;;;8.02;74.94
50550;BME280;36505;52.512;13.460;2024-01-30T10:12:16;102316.44;;;8.18;75.82
50550;BME280;36505;52.512;13.460;2024-01-30T10:14:42;102320.19;;;8.31;75.83
50550;BME280;36505;52.512;13.460;2024-01-30T10:17:09;102314.91;;;8.45;75.61
50550;BME280;36505;52.512;13.460;2024-01-30T10:19:35;102308.91;;;8.56;75.29
50550;BME280;36505;52.512;13.460;2024-01-30T10:22:01;102312.81;;;8.68;75.50
50550;BME280;36505;52.512;13.460;2024-01-30T10:24:27;102311.84;;;8.76;73.95
50550;BME280;36505;52.512;13.460;2024-01-30T10:26:54;102305.44;;;8.83;72.88
50550;BME280;36505;52.512;13.460;2024-01-30T10:29:20;102304.25;;;8.92;73.62
50550;BME280;36505;52.512;13.460;2024-01-30T10:31:46;102296.31;;;8.97;73.11
50550;BME280;36505;52.512;13.460;2024-01-30T10:34:12;102303.72;;;9.03;72.55
50550;BME280;36505;52.512;13.460;2024-01-30T10:36:43;102296.84;;;9.07;72.42
50550;BME280;36505;52.512;13.460;2024-01-30T10:39:13;102296.44;;;9.10;70.78
50550;BME280;36505;52.512;13.460;2024-01-30T10:41:43;102300.88;;;9.11;69.28
50550;BME280;36505;52.512;13.460;2024-01-30T10:44:15;102298.78;;;9.14;69.92
50550;BME280;36505;52.512;13.460;2024-01-30T10:46:44;102293.50;;;9.12;70.46
50550;BME280;36505;52.512;13.460;2024-01-30T10:49:11;102295.84;;;9.15;70.46
50550;BME280;36505;52.512;13.460;2024-01-30T10:51:39;102294.78;;;9.16;69.45
50550;BME280;36505;52.512;13.460;2024-01-30T10:54:05;102292.72;;;9.18;70.08
50550;BME280;36505;52.512;13.460;2024-01-30T10:56:32;102297.78;;;9.21;69.53
50550;BME280;36505;52.512;13.460;2024-01-30T10:58:58;102297.19;;;9.26;70.04
50550;BME280;36505;52.512;13.460;2024-01-30T11:01:25;102290.69;;;9.27;69.13
50550;BME280;36505;52.512;13.460;2024-01-30T11:03:51;102289.91;;;9.33;69.51
50550;BME280;36505;52.512;13.460;2024-01-30T11:06:17;102291.19;;;9.37;67.61
50550;BME280;36505;52.512;13.460;2024-01-30T11:08:45;102300.69;;;9.41;66.17
50550;BME280;36505;52.512;13.460;2024-01-30T11:11:11;102296.94;;;9.48;68.40
50550;BME280;36505;52.512;13.460;2024-01-30T11:13:37;102294.31;;;9.62;68.92
50550;BME280;36505;52.512;13.460;2024-01-30T11:16:03;102291.19;;;9.71;68.17
50550;BME280;36505;52.512;13.460;2024-01-30T11:18:29;102289.53;;;9.77;67.92
50550;BME280;36505;52.512;13.460;2024-01-30T11:21:01;102285.97;;;9.76;67.32
50550;BME280;36505;52.512;13.460;2024-01-30T11:23:30;102280.25;;;9.71;65.80
50550;BME280;36505;52.512;13.460;2024-01-30T11:25:58;102279.38;;;9.64;62.94
50550;BME280;36505;52.512;13.460;2024-01-30T11:28:23;102281.22;;;9.57;64.29
50550;BME280;36505;52.512;13.460;2024-01-30T11:30:49;102286.66;;;9.50;64.36
50550;BME280;36505;52.512;13.460;2024-01-30T11:33:28;102281.56;;;9.41;63.01
50550;BME280;36505;52.512;13.460;2024-01-30T11:35:57;102277.25;;;9.32;63.20
50550;BME280;36505;52.512;13.460;2024-01-30T11:38:25;102293.00;;;9.30;63.79
50550;BME280;36505;52.512;13.460;2024-01-30T11:40:53;102281.84;;;9.25;64.23
50550;BME280;36505;52.512;13.460;2024-01-30T11:43:19;102284.94;;;9.22;65.39
50550;BME280;36505;52.512;13.460;2024-01-30T11:45:45;102279.91;;;9.19;64.30
50550;BME280;36505;52.512;13.460;2024-01-30T11:48:12;102278.59;;;9.15;65.15
50550;BME280;36505;52.512;13.460;2024-01-30T11:50:38;102282.16;;;9.15;64.59
50550;BME280;36505;52.512;13.460;2024-01-30T11:53:04;102276.25;;;9.11;63.99
50550;BME280;36505;52.512;13.460;2024-01-30T11:55:30;102277.31;;;9.10;65.82
50550;BME280;36505;52.512;13.460;2024-01-30T11:57:57;102277.31;;;9.10;66.06
50550;BME280;36505;52.512;13.460;2024-01-30T12:00:22;102270.16;;;9.09;65.43
50550;BME280;36505;52.512;13.460;2024-01-30T12:02:53;102268.66;;;9.07;63.04
50550;BME280;36505;52.512;13.460;2024-01-30T12:05:24;102265.72;;;9.08;65.77
50550;BME280;36505;52.512;13.460;2024-01-30T12:07:50;102270.34;;;9.08;66.39
50550;BME280;36505;52.512;13.460;2024-01-30T12:10:16;102266.19;;;9.12;67.12
50550;BME280;36505;52.512;13.460;2024-01-30T12:12:45;102259.47;;;9.15;67.41
50550;BME280;36505;52.512;13.460;2024-01-30T12:15:12;102254.47;;;9.18;67.03
50550;BME280;36505;52.512;13.460;2024-01-30T12:17:37;102246.25;;;9.18;67.29
50550;BME280;36505;52.512;13.460;2024-01-30T12:20:13;102257.63;;;9.22;64.99
50550;BME280;36505;52.512;13.460;2024-01-30T12:22:40;102251.13;;;9.23;64.59
50550;BME280;36505;52.512;13.460;2024-01-30T12:25:20;102243.75;;;9.23;65.99
50550;BME280;36505;52.512;13.460;2024-01-30T12:27:49;102242.91;;;9.23;66.22
50550;BME280;36505;52.512;13.460;2024-01-30T12:30:16;102238.50;;;9.22;66.50
50550;BME280;36505;52.512;13.460;2024-01-30T12:32:45;102233.03;;;9.22;66.24
50550;BME280;36505;52.512;13.460;2024-01-30T12:37:35;102224.81;;;9.22;66.92
50550;BME280;36505;52.512;13.460;2024-01-30T12:40:01;102215.53;;;9.16;66.09
50550;BME280;36505;52.512;13.460;2024-01-30T12:42:27;102217.88;;;9.19;66.48
50550;BME280;36505;52.512;13.460;2024-01-30T12:44:52;102212.81;;;9.16;65.48
50550;BME280;36505;52.512;13.460;2024-01-30T12:47:18;102210.25;;;9.15;65.15